首页
METAR-TAF:

METAR-TAF

机场 :

Naval Station Mayport (Adm. David L. McDonald Field)

Mayport, 佛罗里达州, 美国

纬度: 30-23-45N, 经度: 081-25-21W, 海拔: 5米

当前天气观测

该预报发布于48分钟前的09:03 UTC
风速8节,风向东转东北
温度 21°C
湿度 69%
气压 1018 hPa
能見度: 16.1公里
少量云层高于2000英尺
多云层高于23000英尺

METAR: KNRB 230903Z 06008KT 10SM FEW020 BKN230 21/15 A3005 RMK AO2 T02110150

时间: 05:51 (09:51 UTC)

预报

预报有效从23日的 07点(UTC)到 24日的 07点(UTC)
风速7节,风向东转东北
能见度10公里或以上
少量云层高于2500英尺
散云层高于15000英尺
多云层高于25000英尺
成为
从 23日的 14点(UTC)到 23日的 16点(UTC)
风速8节,风向东南
能見度: 2309
少量云层高于10000英尺
散云层高于25000英尺

TAF: KNRB 2307/2407 07007KT 9999 FEW025 SCT150 BKN250 QNH3000INS BECMG 2314/2316 13008KT 9999 FEW100 SCT250 QNH2991INS AUTOMATED SENSOR METWATCH 2307 TIL 2309 T22/2311Z T29/2319Z FN00223

超过4000个机场的气象观测和天气预报(METAR&TAF报告)。

可查询的气象台以黄色和红色小点在地图上表示。

将鼠标移到小点上方,可查看气象台名称。

然后点击查看天气观测和预报。

如需切换地图:点击带黑十字的绿色按钮放大地图;点击带横线的绿色按钮缩小地图;或者点击绿色箭头查看邻近地区的地图。


METAR-TAF: